Flight Track Log - Related Links

Times and Time Zones

All times are in EDT time to prevent confusion due to time zone crossing. See the KAP29 flight status page for this flight to view local times or setup timezone preferences in your user account.

Time Position Orientation Groundspeed Altitude Reporting Facility
EDT Latitude Longitude Course Direction KTS MPH feet Rate Location/Type
Sat 06:49:51 AM 44.2186 -74.2014 109° East 155 178 6,900  Level Boston Center
Sat 06:50:51 AM 44.2006 -74.1517 117° Southeast 155 178 7,600 550 Climbing Boston Center
Sat 06:51:51 AM 44.1808 -74.0903 114° Southeast 161 185 8,000 500 Climbing Boston Center
Sat 06:52:51 AM 44.1567 -74.0258 118° Southeast 161 185 8,600 450 Climbing Boston Center
Sat 06:53:51 AM 44.1303 -73.9672 122° Southeast 166 191 8,900 200 Climbing Boston Center
Sat 06:54:00 AM 44.2924 -74.0136 133° Southeast  Level FlightAware Approximate
Sat 06:54:51 AM 44.1061 -73.8972 116° Southeast 185 213 9,000  Level Boston Center
Sat 06:55:00 AM 44.2770 -73.9748 109° East  Level FlightAware Approximate
Sat 06:55:51 AM 44.0781 -73.8244 118° Southeast 201 231 8,900  Level Boston Center
Sat 06:56:51 AM 44.0558 -73.7517 113° Southeast 207 238 9,000  Climbing Boston Center
Sat 06:57:51 AM 44.0297 -73.6789 116° Southeast 207 238 8,900 -50 Descending Boston Center
Sat 06:58:51 AM 44.0053 -73.6092 116° Southeast 207 238 8,900  Level Boston Center
Sat 06:59:51 AM 43.9811 -73.5364 115° Southeast 207 238 8,900  Level Boston Center
Sat 07:00:51 AM 43.9525 -73.4725 122° Southeast 202 232 8,900  Level Boston Center
Sat 07:01:51 AM 43.9258 -73.4086 120° Southeast 197 227 8,900  Level Boston Center
Sat 07:02:51 AM 43.9014 -73.3478 119° Southeast 197 227 8,900  Level Boston Center
Sat 07:04:03 AM 43.8769 -73.2811 117° Southeast 197 227 8,900  Level Boston Center
Sat 07:05:03 AM 43.8442 -73.1914 117° Southeast 202 232 8,900  Level Boston Center
Sat 07:06:03 AM 43.8197 -73.1219 116° Southeast 202 232 8,900  Level Boston Center
Sat 07:07:03 AM 43.7972 -73.0586 116° Southeast 202 232 8,900  Level Boston Center
Sat 07:08:03 AM 43.7703 -72.9922 119° Southeast 197 227 8,900  Level Boston Center
Sat 07:09:03 AM 43.7456 -72.9258 117° Southeast 197 227 8,900  Level Boston Center
Sat 07:10:03 AM 43.7208 -72.8594 117° Southeast 197 227 8,900  Level Boston Center
Sat 07:11:03 AM 43.6961 -72.7933 117° Southeast 197 227 8,900  Level Boston Center
Sat 07:12:03 AM 43.6756 -72.7386 117° Southeast 197 227 8,900 50 Level Boston Center
Sat 07:13:03 AM 43.6486 -72.6667 117° Southeast 197 227 9,000 50 Climbing Boston Center
Sat 07:14:03 AM 43.6236 -72.6008 118° Southeast 197 227 9,000  Level Boston Center
Sat 07:15:03 AM 43.5986 -72.5317 117° Southeast 197 227 9,000  Level Boston Center
Sat 07:16:03 AM 43.5717 -72.4658 119° Southeast 197 227 9,000  Level Boston Center
Sat 07:17:03 AM 43.5444 -72.4000 120° Southeast 197 227 9,000  Level Boston Center
Sat 07:18:03 AM 43.5194 -72.3314 117° Southeast 197 227 9,000 -50 Level Boston Center
Sat 07:19:03 AM 43.4944 -72.2625 117° Southeast 197 227 8,900  Descending Boston Center
Sat 07:20:03 AM 43.4672 -72.1969 120° Southeast 202 232 9,000 50 Climbing Boston Center
Sat 07:21:03 AM 43.4419 -72.1342 119° Southeast 197 227 9,000 45 Level Boston Center
Sat 07:22:15 AM 43.4125 -72.0542 117° Southeast 197 227 9,100 45 Climbing Boston Center
Sat 07:23:15 AM 43.3831 -71.9831 120° Southeast 197 227 9,100  Level Boston Center
Sat 07:24:15 AM 43.3600 -71.9261 119° Southeast 197 227 9,100  Level Boston Center
Sat 07:25:15 AM 43.3325 -71.8550 118° Southeast 197 227 9,100  Level Boston Center
Sat 07:26:27 AM 43.3031 -71.7781 118° Southeast 197 227 9,100  Level Boston Center
Sat 07:27:27 AM 43.2797 -71.7186 118° Southeast 191 220 9,100  Level Boston Center
Sat 07:28:27 AM 43.2522 -71.6478 118° Southeast 191 220 9,100  Level Boston Center
Sat 07:29:27 AM 43.2289 -71.5881 118° Southeast 191 220 9,100 -50 Level Boston Center
Sat 07:30:27 AM 43.1969 -71.5203 123° Southeast 191 220 9,000 -300 Descending Boston Center
Sat 07:31:27 AM 43.1672 -71.4608 124° Southeast 197 227 8,500 -450 Descending Boston Center
Sat 07:32:27 AM 43.1169 -71.4106 144° Southeast 205 236 8,100 -441 Descending Boston Center
Sat 07:33:43 AM 43.0500 -71.3500 147° Southeast 205 236 7,500 -435 Descending KA90
Sat 07:34:31 AM 43.0167 -71.3167 144° Southeast 203 234 7,200 -444 Descending KA90
Sat 07:35:31 AM 42.9667 -71.2833 154° Southeast 204 235 6,700 -524 Descending KA90
Sat 07:36:37 AM 42.9167 -71.2333 144° Southeast 211 243 6,100 -333 Descending KA90
Sat 07:37:37 AM 42.8667 -71.2000 154° Southeast 204 235 6,000 -50 Descending KA90
Sat 07:38:37 AM 42.8167 -71.1500 144° Southeast 194 223 6,000  Level KA90
Sat 07:39:31 AM 42.7833 -71.1167 144° Southeast 190 219 6,000 -48 Level KA90
Sat 07:40:43 AM 42.7333 -71.0833 154° Southeast 189 217 5,900 -227 Descending KA90
Sat 07:41:43 AM 42.6667 -71.0667 170° South 203 234 5,500 -421 Descending KA90
Sat 07:42:37 AM 42.6167 -71.0667 180° South 201 231 5,100 -474 Descending KA90
Sat 07:43:37 AM 42.5667 -71.0333 154° Southeast 200 230 4,600 -524 Descending KA90
Sat 07:44:43 AM 42.5333 -70.9667 124° Southeast 198 228 4,000 -300 Descending KA90
Sat 07:45:37 AM 42.5000 -70.9167 132° Southeast 185 213 4,000 -100 Level KA90
Sat 07:46:43 AM 42.4500 -70.8833 154° Southeast 188 216 3,800 -524 Descending KA90
Sat 07:47:43 AM 42.4000 -70.8500 154° Southeast 185 213 2,900 -737 Descending KA90
Sat 07:48:37 AM 42.3667 -70.8667 200° South 168 193 2,400 -632 Descending KA90
Sat 07:49:37 AM 42.3333 -70.9167 228° Southwest 163 188 1,700 -800 Descending KA90
Sat 07:50:37 AM 42.3333 -70.9667 270° West 112 129 800 -900 Descending KA90
Sat 07:52:00 AM 42.3500 -71.0000 260° West  Level FlightAware Approximate
Sat 07:59:00 AM 42.3630 -71.0064 260° West  Level Estimated

Login

Don't have an account? Register now (free) for customized features, flight alerts, and more!